Time;durP1;ratioP1;P1;durP2;ratioP2;P2;SDS_P1;SDS_P2;PMS_P1;PMS_P2;Temp;Humidity;BMP_temperature;BMP_pressure;BME280_temperature;BME280_humidity;BME280_pressure;Samples;Min_cycle;Max_cycle;Signal;HPM_P1;HPM_P2
2022/11/22 00:00:50;;;;;;;20.50;8.90;;;;;;;-148.88;100.00;75494.91;5013111;28;20109;-77
2022/11/22 00:03:15;;;;;;;20.52;8.93;;;;;;;-148.88;100.00;75501.00;5012948;28;20034;-77
2022/11/22 00:05:40;;;;;;;19.88;8.85;;;;;;;-148.88;100.00;75501.00;5012914;28;20052;-77
2022/11/22 00:08:06;;;;;;;20.23;8.70;;;;;;;-148.88;100.00;75496.94;5012797;28;20038;-77
2022/11/22 00:10:32;;;;;;;22.95;9.95;;;;;;;-148.88;100.00;75492.88;5012876;28;20034;-77
2022/11/22 00:12:57;;;;;;;17.38;8.45;;;;;;;-148.88;100.00;75482.72;5012578;28;20026;-77
2022/11/22 00:15:23;;;;;;;21.63;8.77;;;;;;;-148.88;100.00;75480.69;5012597;28;20071;-77
2022/11/22 00:17:48;;;;;;;20.15;9.15;;;;;;;-148.88;100.00;75476.63;5012557;28;20388;-77
2022/11/22 00:20:13;;;;;;;18.77;8.95;;;;;;;-148.88;100.00;75474.59;5012536;28;20041;-77
2022/11/22 00:22:38;;;;;;;20.05;8.80;;;;;;;-148.88;100.00;75474.59;5012525;28;20022;-77
2022/11/22 00:25:05;;;;;;;19.17;8.35;;;;;;;-148.88;100.00;75476.63;5011230;28;20057;-77
2022/11/22 00:27:31;;;;;;;19.95;8.80;;;;;;;-148.88;100.00;75474.59;5012650;28;20061;-77
2022/11/22 00:29:56;;;;;;;20.00;9.18;;;;;;;-148.88;100.00;75464.44;5012714;28;20049;-77
2022/11/22 00:32:21;;;;;;;19.58;9.52;;;;;;;-148.88;100.00;75466.47;5012993;28;20427;-77
2022/11/22 00:34:47;;;;;;;19.50;9.02;;;;;;;-148.88;100.00;75460.38;5013051;28;20164;-77
2022/11/22 00:37:12;;;;;;;17.77;9.30;;;;;;;-148.88;100.00;75450.22;5011484;28;20033;-77
2022/11/22 00:39:37;;;;;;;21.17;9.20;;;;;;;-148.88;100.00;75444.13;5012652;28;20392;-77
2022/11/22 00:42:03;;;;;;;19.35;9.35;;;;;;;-148.88;100.00;75440.06;5012580;28;20029;-77
2022/11/22 00:44:28;;;;;;;20.75;8.93;;;;;;;-148.88;100.00;75448.19;5012262;28;20022;-77
2022/11/22 00:46:53;;;;;;;18.08;9.23;;;;;;;-148.88;100.00;75431.94;5012249;28;20044;-77
2022/11/22 00:49:19;;;;;;;19.50;8.82;;;;;;;-148.88;100.00;75431.94;5012343;28;20535;-77
2022/11/22 00:51:44;;;;;;;17.98;8.43;;;;;;;-148.88;100.00;75423.81;5015710;28;20034;-77
2022/11/22 00:54:09;;;;;;;22.67;9.93;;;;;;;-148.88;100.00;75427.88;5016175;28;20064;-77
2022/11/22 00:56:34;;;;;;;21.90;10.13;;;;;;;-148.88;100.00;75427.88;5014871;28;20028;-77
2022/11/22 00:59:00;;;;;;;19.98;8.88;;;;;;;-148.88;100.00;75415.69;5016235;28;20021;-77
2022/11/22 01:01:25;;;;;;;17.67;8.55;;;;;;;-148.88;100.00;75413.66;5016248;28;20456;-77
2022/11/22 01:03:51;;;;;;;19.48;9.18;;;;;;;-148.88;100.00;75411.63;5016784;28;20056;-77
2022/11/22 01:06:16;;;;;;;19.45;9.27;;;;;;;-148.88;100.00;75411.63;5016370;28;20062;-77
2022/11/22 01:08:44;;;;;;;17.48;9.05;;;;;;;-148.88;100.00;75409.59;5016097;28;20029;-78
2022/11/22 01:11:10;;;;;;;19.55;8.23;;;;;;;-148.88;100.00;75401.47;5016445;28;20105;-77
2022/11/22 01:13:35;;;;;;;16.27;8.60;;;;;;;-148.88;100.00;75395.38;5016149;28;20112;-77
2022/11/22 01:16:04;;;;;;;18.63;8.43;;;;;;;-148.88;100.00;75391.31;5016086;28;20097;-77
2022/11/22 01:18:30;;;;;;;21.15;9.32;;;;;;;-148.88;100.00;75395.38;5016254;28;20022;-77
2022/11/22 01:20:55;;;;;;;16.63;8.85;;;;;;;-148.88;100.00;75389.28;5016167;28;20093;-77
2022/11/22 01:23:21;;;;;;;27.38;8.85;;;;;;;-148.88;100.00;75389.28;5016094;28;20018;-78
2022/11/22 01:25:46;;;;;;;19.13;8.38;;;;;;;-148.88;100.00;75383.19;5016018;28;20393;-77
2022/11/22 01:28:11;;;;;;;18.55;8.85;;;;;;;-148.88;100.00;75364.91;5014692;28;20026;-77
2022/11/22 01:30:37;;;;;;;16.45;8.52;;;;;;;-148.88;100.00;75373.03;5015770;28;20026;-77
2022/11/22 01:33:02;;;;;;;15.88;8.02;;;;;;;-148.88;100.00;75366.94;5015750;28;20392;-77
2022/11/22 01:35:28;;;;;;;18.95;8.25;;;;;;;-148.88;100.00;75358.81;5015701;28;20084;-77
2022/11/22 01:37:53;;;;;;;19.08;8.70;;;;;;;-148.88;100.00;75356.78;5015964;28;20026;-77
2022/11/22 01:40:18;;;;;;;16.77;8.13;;;;;;;-148.88;100.00;75350.69;5015612;28;20026;-77
2022/11/22 01:42:51;;;;;;;19.33;8.43;;;;;;;-148.88;100.00;75326.31;5015679;28;20030;-77
2022/11/22 01:45:28;;;;;;;17.43;8.53;;;;;;;-148.88;100.00;75322.25;5015465;28;20037;-77
2022/11/22 01:48:06;;;;;;;18.52;8.50;;;;;;;-148.88;100.00;75334.44;5015507;28;20264;-77
2022/11/22 01:50:34;;;;;;;18.98;8.43;;;;;;;-148.88;100.00;75346.63;5015559;28;20064;-77
2022/11/22 01:53:05;;;;;;;21.95;8.82;;;;;;;-148.88;100.00;75342.56;5015318;28;20029;-77
2022/11/22 01:55:31;;;;;;;21.02;9.40;;;;;;;-148.88;100.00;75342.56;5015549;28;20026;-77
2022/11/22 01:57:57;;;;;;;15.77;7.57;;;;;;;-148.88;100.00;75338.50;5015182;28;20116;-77
2022/11/22 02:00:23;;;;;;;16.20;8.25;;;;;;;-148.88;100.00;75342.56;5015031;28;20022;-77
2022/11/22 02:02:58;;;;;;;17.92;8.73;;;;;;;-148.88;100.00;75344.59;5014023;28;20128;-77
2022/11/22 02:05:27;;;;;;;17.60;8.27;;;;;;;-148.88;100.00;75334.44;5014829;28;20025;-77
2022/11/22 02:07:58;;;;;;;17.35;8.30;;;;;;;-148.88;100.00;75338.50;5014676;28;20440;-77
2022/11/22 02:10:25;;;;;;;15.82;7.95;;;;;;;-148.88;100.00;75330.38;5015045;28;20385;-77
2022/11/22 02:12:53;;;;;;;15.40;8.13;;;;;;;-148.88;100.00;75336.47;5014642;28;20025;-77
2022/11/22 02:15:18;;;;;;;17.38;8.38;;;;;;;-148.88;100.00;75334.44;5014739;28;20076;-77
2022/11/22 02:17:43;;;;;;;14.23;7.68;;;;;;;-148.88;100.00;75328.34;5014658;28;20026;-77
2022/11/22 02:20:09;;;;;;;20.13;7.63;;;;;;;-148.88;100.00;75334.44;5014948;28;20029;-77
2022/11/22 02:22:34;;;;;;;15.57;7.60;;;;;;;-148.88;100.00;75332.41;5015109;28;20029;-77
2022/11/22 02:25:07;;;;;;;18.13;7.93;;;;;;;-148.88;100.00;75326.31;5014628;28;20093;-77
2022/11/22 02:27:33;;;;;;;14.02;7.10;;;;;;;-148.88;100.00;75324.28;5014657;28;20036;-77
2022/11/22 02:29:58;;;;;;;18.33;8.00;;;;;;;-148.88;100.00;75324.28;5014778;28;20034;-77
2022/11/22 02:32:23;;;;;;;19.20;7.97;;;;;;;-148.88;100.00;75316.16;5015335;28;20037;-77
2022/11/22 02:34:50;;;;;;;15.23;7.60;;;;;;;-148.88;100.00;75310.06;5013767;28;20026;-77
2022/11/22 02:37:26;;;;;;;13.13;7.55;;;;;;;-148.88;100.00;75301.94;5013740;28;20021;-77
2022/11/22 02:40:02;;;;;;;16.33;7.35;;;;;;;-148.88;100.00;75310.06;5013627;28;20041;-77
2022/11/22 02:42:29;;;;;;;19.35;7.70;;;;;;;-148.88;100.00;75308.03;5014825;28;20045;-77
2022/11/22 02:44:55;;;;;;;14.93;8.10;;;;;;;-148.88;100.00;75301.94;5013477;28;20029;-77
2022/11/22 02:47:20;;;;;;;15.73;7.53;;;;;;;-148.88;100.00;75306.00;5014710;28;20026;-77
2022/11/22 02:49:45;;;;;;;16.38;8.02;;;;;;;-148.88;100.00;75301.94;5014758;28;20026;-77
2022/11/22 02:52:15;;;;;;;14.88;7.63;;;;;;;-148.88;100.00;75297.88;5014646;28;20026;-77
2022/11/22 02:54:41;;;;;;;13.13;7.20;;;;;;;-148.88;100.00;75297.88;5014610;28;20112;-77
2022/11/22 02:57:06;;;;;;;13.93;7.43;;;;;;;-148.88;100.00;75291.78;5014822;28;20104;-77
2022/11/22 02:59:32;;;;;;;14.73;6.65;;;;;;;-148.88;100.00;75281.66;5014874;28;20133;-77
2022/11/22 03:01:58;;;;;;;17.33;7.10;;;;;;;-148.88;100.00;75281.66;5014970;28;20068;-77
2022/11/22 03:04:23;;;;;;;14.65;7.70;;;;;;;-148.88;100.00;75285.69;5014514;28;20042;-77
2022/11/22 03:06:57;;;;;;;14.95;7.20;;;;;;;-148.88;100.00;75285.69;5014511;28;20396;-77
2022/11/22 03:09:23;;;;;;;14.30;7.45;;;;;;;-148.88;100.00;75283.66;5014826;28;20041;-77
2022/11/22 03:11:49;;;;;;;20.65;8.23;;;;;;;-148.88;100.00;75281.66;5014438;28;20029;-77
2022/11/22 03:14:15;;;;;;;16.33;7.15;;;;;;;-148.88;100.00;75281.66;5014259;28;20064;-77
2022/11/22 03:16:41;;;;;;;12.85;6.53;;;;;;;-148.88;100.00;75279.59;5014512;28;20057;-77
2022/11/22 03:19:07;;;;;;;15.90;7.60;;;;;;;-148.88;100.00;75277.59;5014282;28;20448;-77
2022/11/22 03:21:32;;;;;;;14.30;7.18;;;;;;;-148.88;100.00;75269.47;5014173;28;20026;-77
2022/11/22 03:23:58;;;;;;;16.95;7.53;;;;;;;-148.88;100.00;75265.41;5012775;28;20055;-77
2022/11/22 03:26:23;;;;;;;14.90;7.00;;;;;;;-148.88;100.00;75269.47;5014135;28;20068;-77
2022/11/22 03:28:48;;;;;;;14.15;6.80;;;;;;;-148.88;100.00;75273.53;5014175;28;20026;-78
2022/11/22 03:31:13;;;;;;;17.00;8.10;;;;;;;-148.88;100.00;75273.53;5014275;28;20068;-77
2022/11/22 03:33:39;;;;;;;15.80;8.30;;;;;;;-148.88;100.00;75273.53;5014080;28;20025;-78
2022/11/22 03:36:04;;;;;;;14.38;6.97;;;;;;;-148.88;100.00;75277.59;5014021;28;20041;-76
2022/11/22 03:38:29;;;;;;;15.48;7.35;;;;;;;-148.88;100.00;75273.53;5013934;28;20032;-76
2022/11/22 03:40:55;;;;;;;16.92;7.25;;;;;;;-148.88;100.00;75277.59;5014026;28;20145;-76
2022/11/22 03:43:21;;;;;;;16.08;8.13;;;;;;;-148.88;100.00;75279.59;5013620;28;20032;-76
2022/11/22 03:45:46;;;;;;;15.63;7.45;;;;;;;-148.88;100.00;75285.69;5013944;28;20037;-76
2022/11/22 03:48:12;;;;;;;19.88;8.10;;;;;;;-148.88;100.00;75283.66;5013668;28;20400;-76
2022/11/22 03:50:38;;;;;;;19.38;8.50;;;;;;;-148.88;100.00;75289.75;5013669;28;20397;-76
2022/11/22 03:53:03;;;;;;;17.90;7.68;;;;;;;-148.88;100.00;75293.81;5012304;28;20022;-77
2022/11/22 03:55:28;;;;;;;21.25;8.73;;;;;;;-148.88;100.00;75295.84;5013586;28;20488;-77
2022/11/22 03:57:54;;;;;;;19.15;8.63;;;;;;;-148.88;100.00;75285.69;5012318;28;20040;-77
2022/11/22 04:00:19;;;;;;;17.95;8.50;;;;;;;-148.88;100.00;75285.69;5013574;28;20026;-77
2022/11/22 04:02:44;;;;;;;17.02;8.73;;;;;;;-148.88;100.00;75293.81;5013431;28;20026;-77
2022/11/22 04:05:10;;;;;;;20.52;9.07;;;;;;;-148.88;100.00;75301.94;5012184;28;20125;-77
2022/11/22 04:07:35;;;;;;;18.55;8.80;;;;;;;-148.88;100.00;75299.91;5013549;28;20113;-77
2022/11/22 04:10:00;;;;;;;23.58;9.63;;;;;;;-148.88;100.00;75297.88;5013494;28;20401;-77
2022/11/22 04:12:28;;;;;;;21.02;9.68;;;;;;;-148.88;100.00;75310.06;5013913;28;20025;-77
2022/11/22 04:15:05;;;;;;;21.85;9.20;;;;;;;-148.88;100.00;75297.88;5013357;28;20026;-77
2022/11/22 04:17:40;;;;;;;21.48;9.52;;;;;;;-148.88;100.00;75301.94;5013605;28;20113;-77
2022/11/22 04:23:00;;;;;;;24.75;10.35;;;;;;;-148.88;100.00;75295.84;5013407;28;20033;-76
2022/11/22 04:25:27;;;;;;;23.27;9.38;;;;;;;-148.88;100.00;75299.91;5012927;28;20025;-76
2022/11/22 04:27:52;;;;;;;24.77;10.18;;;;;;;-148.88;100.00;75301.94;5011881;28;20045;-77
2022/11/22 04:30:18;;;;;;;26.80;10.18;;;;;;;-148.88;100.00;75291.78;5013386;28;20052;-76
2022/11/22 04:32:46;;;;;;;27.83;10.38;;;;;;;-148.88;100.00;75295.84;5013089;28;20022;-76
2022/11/22 04:35:13;;;;;;;23.83;10.20;;;;;;;-148.88;100.00;75297.88;5013304;28;20033;-76
2022/11/22 04:37:40;;;;;;;25.48;10.43;;;;;;;-148.88;100.00;75301.94;5013095;28;20112;-76
2022/11/22 04:40:06;;;;;;;26.25;9.40;;;;;;;-148.88;100.00;75301.94;5013307;28;20026;-76
2022/11/22 04:45:15;;;;;;;24.55;9.63;;;;;;;-148.88;100.00;75289.75;5013050;28;20036;-77
2022/11/22 04:47:59;;;;;;;21.83;9.73;;;;;;;-148.88;100.00;75291.78;5013027;28;20113;-75
2022/11/22 04:53:14;;;;;;;23.50;9.43;;;;;;;-148.88;100.00;75289.75;5013196;28;20045;-75
2022/11/22 04:55:41;;;;;;;24.23;10.60;;;;;;;-148.88;100.00;75283.66;5011748;28;20076;-76
2022/11/22 04:58:06;;;;;;;25.40;10.93;;;;;;;-148.88;100.00;75287.72;5012937;28;20477;-76
2022/11/22 05:00:33;;;;;;;26.90;9.95;;;;;;;-148.88;100.00;75291.78;5013149;28;20060;-76
2022/11/22 05:02:58;;;;;;;22.25;10.10;;;;;;;-148.88;100.00;75283.66;5012754;28;20026;-76
2022/11/22 05:05:24;;;;;;;20.42;8.90;;;;;;;-148.88;100.00;75279.59;5012798;28;20412;-76
2022/11/22 05:07:50;;;;;;;27.52;9.00;;;;;;;-148.88;100.00;75277.59;5012612;28;20057;-75
2022/11/22 05:10:15;;;;;;;20.67;9.32;;;;;;;-148.88;100.00;75273.53;5012800;28;20057;-76
2022/11/22 05:12:41;;;;;;;17.52;8.43;;;;;;;-148.88;100.00;75267.44;5011423;28;20022;-76
2022/11/22 05:15:09;;;;;;;16.35;8.65;;;;;;;-148.88;100.00;75271.50;5011497;28;20444;-76
2022/11/22 05:17:35;;;;;;;23.20;8.48;;;;;;;-148.88;100.00;75279.59;5012813;28;20029;-75
2022/11/22 05:20:00;;;;;;;17.67;9.23;;;;;;;-148.88;100.00;75281.66;5013013;28;20076;-76
2022/11/22 05:25:11;;;;;;;19.08;8.95;;;;;;;-148.88;100.00;75281.66;5012652;28;20233;-76
2022/11/22 05:27:36;;;;;;;18.60;8.70;;;;;;;-148.88;100.00;75285.69;5012800;28;20116;-76
2022/11/22 05:30:03;;;;;;;20.13;8.55;;;;;;;-148.88;100.00;75285.69;5012583;28;20045;-76
2022/11/22 05:32:32;;;;;;;18.80;8.23;;;;;;;-148.88;100.00;75275.56;5012579;28;20021;-76
2022/11/22 05:34:57;;;;;;;16.13;6.80;;;;;;;-148.88;100.00;75277.59;5011296;28;20117;-76
2022/11/22 05:37:24;;;;;;;17.38;6.88;;;;;;;-148.88;100.00;75273.53;5012474;28;20491;-76
2022/11/22 05:39:49;;;;;;;16.98;6.22;;;;;;;-148.88;100.00;75269.47;5014829;28;20472;-76
2022/11/22 05:42:14;;;;;;;15.02;7.03;;;;;;;-148.88;100.00;75265.41;5016005;28;20057;-76
2022/11/22 05:44:40;;;;;;;29.45;10.77;;;;;;;-148.88;100.00;75257.28;5014642;28;20025;-75
2022/11/22 05:47:05;;;;;;;38.95;13.10;;;;;;;-148.88;100.00;75247.13;5014628;28;20049;-75
2022/11/22 05:49:31;;;;;;;33.53;11.48;;;;;;;-148.88;100.00;75245.09;5015927;28;20109;-75
2022/11/22 05:51:57;;;;;;;28.02;10.20;;;;;;;-148.88;100.00;75243.06;5015863;28;20022;-75
2022/11/22 05:54:22;;;;;;;14.88;6.53;;;;;;;-148.88;100.00;75232.91;5014504;28;20029;-76
2022/11/22 05:56:48;;;;;;;20.00;8.27;;;;;;;-148.88;100.00;75224.78;5015796;28;20472;-76
2022/11/22 05:59:15;;;;;;;18.38;7.40;;;;;;;-148.88;100.00;75224.78;5014712;28;20176;-75
2022/11/22 06:01:40;;;;;;;12.70;5.70;;;;;;;-148.88;100.00;75216.66;5016015;28;20457;-76
2022/11/22 06:04:06;;;;;;;16.95;7.18;;;;;;;-148.88;100.00;75228.84;5015633;28;20575;-75
2022/11/22 06:06:31;;;;;;;14.90;6.72;;;;;;;-148.88;100.00;75224.78;5015575;28;20029;-76
2022/11/22 06:08:58;;;;;;;13.45;6.07;;;;;;;-148.88;100.00;75216.66;5015571;28;20045;-75
2022/11/22 06:11:25;;;;;;;12.57;5.57;;;;;;;-148.88;100.00;75214.63;5015410;28;20551;-75
2022/11/22 06:14:05;;;;;;;10.93;5.18;;;;;;;-148.88;100.00;75220.72;5015262;28;20087;-75
2022/11/22 06:16:30;;;;;;;12.63;4.72;;;;;;;-148.88;100.00;75214.63;5015508;28;20022;-77
2022/11/22 06:18:56;;;;;;;9.27;4.85;;;;;;;-148.88;100.00;75212.59;5015146;28;20040;-76
2022/11/22 06:21:24;;;;;;;8.95;4.85;;;;;;;-148.88;100.00;75208.53;5015348;28;20056;-76
2022/11/22 06:23:54;;;;;;;12.30;4.85;;;;;;;-148.88;100.00;75204.47;5013980;28;20029;-76
2022/11/22 06:26:21;;;;;;;8.50;4.78;;;;;;;-148.88;100.00;75208.53;5015470;28;20512;-77
2022/11/22 06:28:47;;;;;;;8.82;4.72;;;;;;;-148.88;100.00;75208.53;5015250;28;20021;-77
2022/11/22 06:31:18;;;;;;;7.88;4.68;;;;;;;-148.88;100.00;75208.53;5015186;28;20053;-77
2022/11/22 06:33:43;;;;;;;9.10;4.30;;;;;;;-148.88;100.00;75204.47;5015079;28;20492;-77
2022/11/22 06:36:10;;;;;;;8.32;4.80;;;;;;;-148.88;100.00;75198.38;5015044;28;20060;-76
2022/11/22 06:38:37;;;;;;;10.85;4.35;;;;;;;-148.88;100.00;75200.41;5014994;28;20054;-76
2022/11/22 06:41:08;;;;;;;9.18;4.22;;;;;;;-148.88;100.00;75202.44;5013661;28;20025;-76
2022/11/22 06:43:34;;;;;;;9.30;4.22;;;;;;;-148.88;100.00;75200.41;5014891;28;20473;-76
2022/11/22 06:46:01;;;;;;;8.77;4.05;;;;;;;-148.88;100.00;75200.41;5015033;28;20113;-76
2022/11/22 06:48:32;;;;;;;12.40;4.80;;;;;;;-148.88;100.00;75196.34;5013002;28;20488;-76
2022/11/22 06:50:59;;;;;;;9.75;3.72;;;;;;;-148.88;100.00;75200.41;5015075;28;20025;-76
2022/11/22 06:53:27;;;;;;;10.68;4.00;;;;;;;-148.88;100.00;75194.31;5014732;28;20101;-76
2022/11/22 06:55:58;;;;;;;8.98;4.32;;;;;;;-148.88;100.00;75196.34;5014662;28;20362;-76
2022/11/22 06:58:24;;;;;;;8.32;4.28;;;;;;;-148.88;100.00;75204.47;5014767;28;20033;-76
2022/11/22 07:00:50;;;;;;;10.30;4.05;;;;;;;-148.88;100.00;75204.47;5014346;28;20026;-75
2022/11/22 07:03:15;;;;;;;10.25;3.83;;;;;;;-148.88;100.00;75204.47;5014488;28;20472;-76
2022/11/22 07:05:49;;;;;;;8.20;4.13;;;;;;;-148.88;100.00;75212.59;5014991;28;20026;-76
2022/11/22 07:08:14;;;;;;;10.80;3.90;;;;;;;-148.88;100.00;75216.66;5013120;28;20534;-76
2022/11/22 07:10:40;;;;;;;9.23;3.88;;;;;;;-148.88;100.00;75218.69;5014458;28;20029;-76
2022/11/22 07:13:05;;;;;;;9.98;4.07;;;;;;;-148.88;100.00;75216.66;5014366;28;20108;-76
2022/11/22 07:15:30;;;;;;;13.27;4.20;;;;;;;-148.88;100.00;75218.69;5014369;28;20022;-76
2022/11/22 07:17:55;;;;;;;10.85;4.88;;;;;;;-148.88;100.00;75220.72;5013083;28;20044;-76
2022/11/22 07:20:21;;;;;;;12.85;4.55;;;;;;;-148.88;100.00;75222.75;5014252;28;20484;-76
2022/11/22 07:22:46;;;;;;;11.55;4.60;;;;;;;-148.88;100.00;75222.75;5012978;28;20022;-76
2022/11/22 07:25:11;;;;;;;8.75;3.83;;;;;;;-148.88;100.00;75218.69;5014067;28;20387;-76
2022/11/22 07:27:37;;;;;;;8.60;3.83;;;;;;;-148.88;100.00;75218.69;5014161;28;20022;-76
2022/11/22 07:30:02;;;;;;;8.93;3.78;;;;;;;-148.88;100.00;75224.78;5014071;28;20029;-76
2022/11/22 07:32:28;;;;;;;8.98;4.05;;;;;;;-148.88;100.00;75218.69;5014062;28;20109;-76
2022/11/22 07:34:53;;;;;;;9.98;3.75;;;;;;;-148.88;100.00;75224.78;5011758;28;20029;-76
2022/11/22 07:37:18;;;;;;;7.97;4.15;;;;;;;-148.88;100.00;75226.81;5012819;28;20010;-76
2022/11/22 07:39:43;;;;;;;9.93;4.20;;;;;;;-148.88;100.00;75232.91;5012293;28;20091;-76
2022/11/22 07:42:09;;;;;;;8.38;3.25;;;;;;;-148.88;100.00;75224.78;5013556;28;20030;-76
2022/11/22 07:44:34;;;;;;;6.78;3.58;;;;;;;-148.88;100.00;75228.84;5013244;28;20026;-76
2022/11/22 07:46:59;;;;;;;10.93;4.22;;;;;;;-148.88;100.00;75230.88;5013661;28;20029;-76
2022/11/22 07:49:25;;;;;;;8.55;3.70;;;;;;;-148.88;100.00;75216.66;5013740;28;20076;-76
2022/11/22 07:51:51;;;;;;;7.88;3.25;;;;;;;-148.88;100.00;75218.69;5013851;28;20022;-76
2022/11/22 07:54:18;;;;;;;6.50;3.38;;;;;;;-148.88;100.00;75220.72;5013566;28;20450;-76
2022/11/22 07:56:43;;;;;;;11.18;3.38;;;;;;;-148.88;100.00;75214.63;5013631;28;20025;-76
2022/11/22 07:59:09;;;;;;;6.13;3.30;;;;;;;-148.88;100.00;75220.72;5013415;28;20026;-77
2022/11/22 08:01:34;;;;;;;6.93;3.15;;;;;;;-148.88;100.00;75212.59;5013052;28;20021;-76
2022/11/22 08:04:01;;;;;;;7.63;3.53;;;;;;;-148.88;100.00;75216.66;5013416;28;20041;-76
2022/11/22 08:06:26;;;;;;;9.52;3.85;;;;;;;-148.88;100.00;75218.69;5013340;28;20030;-75
2022/11/22 08:08:53;;;;;;;7.45;3.08;;;;;;;-148.88;100.00;75214.63;5013234;28;20030;-75
2022/11/22 08:11:18;;;;;;;6.97;2.97;;;;;;;-148.88;100.00;75220.72;5012170;28;20036;-75
2022/11/22 08:13:43;;;;;;;7.60;2.85;;;;;;;-148.88;100.00;75212.59;5013591;28;20381;-75
2022/11/22 08:16:12;;;;;;;6.55;3.30;;;;;;;-148.88;100.00;75220.72;5013882;28;20050;-75
2022/11/22 08:18:39;;;;;;;7.82;2.83;;;;;;;-148.88;100.00;75212.59;5013364;28;20026;-76
2022/11/22 08:21:11;;;;;;;9.05;3.20;;;;;;;-148.88;100.00;75202.44;5013600;28;20033;-77
2022/11/22 08:23:37;;;;;;;7.47;3.17;;;;;;;-148.88;100.00;75196.34;5012469;28;20386;-76
2022/11/22 08:26:04;;;;;;;7.28;2.80;;;;;;;-148.88;100.00;75188.22;5013592;28;20105;-76
2022/11/22 08:28:29;;;;;;;8.75;3.42;;;;;;;-148.88;100.00;75176.03;5013124;28;20052;-76
2022/11/22 08:31:09;;;;;;;6.57;2.63;;;;;;;-148.88;100.00;75174.00;5013113;28;20026;-76
2022/11/22 08:33:35;;;;;;;8.35;2.88;;;;;;;-148.88;100.00;75157.75;5013107;28;20420;-76
2022/11/22 08:36:01;;;;;;;7.53;2.97;;;;;;;-148.88;100.00;75155.72;5013019;28;20026;-76
2022/11/22 08:38:26;;;;;;;7.82;3.35;;;;;;;-148.88;100.00;75157.75;5012989;28;20026;-76
2022/11/22 08:40:53;;;;;;;7.72;2.60;;;;;;;-148.88;100.00;75147.59;5012971;28;20429;-76
2022/11/22 08:43:19;;;;;;;10.20;2.60;;;;;;;-148.88;100.00;75139.47;5011313;28;20037;-76
2022/11/22 08:45:52;;;;;;;10.10;2.60;;;;;;;-148.88;100.00;75131.34;5011766;28;20092;-76
2022/11/22 08:48:17;;;;;;;4.88;2.17;;;;;;;-148.88;100.00;75129.31;5012838;28;20079;-76
2022/11/22 08:50:59;;;;;;;8.95;2.30;;;;;;;-148.88;100.00;75123.22;5012915;28;20025;-76
2022/11/22 08:53:25;;;;;;;10.25;2.70;;;;;;;-148.88;100.00;75119.16;5012827;28;20052;-76
2022/11/22 08:55:51;;;;;;;4.88;2.25;;;;;;;-148.88;100.00;75094.81;5012823;28;20030;-76
2022/11/22 08:58:17;;;;;;;6.93;2.20;;;;;;;-148.88;100.00;75088.72;5011529;28;20026;-76
2022/11/22 09:00:43;;;;;;;6.15;2.20;;;;;;;-148.88;100.00;75078.56;5012820;28;20369;-76
2022/11/22 09:03:09;;;;;;;10.88;2.35;;;;;;;-148.88;100.00;75076.53;5013021;28;20030;-76
2022/11/22 09:05:35;;;;;;;6.00;2.08;;;;;;;-148.88;100.00;75074.50;5013058;28;20026;-75
2022/11/22 09:08:03;;;;;;;7.80;2.50;;;;;;;-148.88;100.00;75070.44;5040257;23;20057;-84
2022/11/22 09:10:29;;;;;;;8.95;2.00;;;;;;;-148.88;100.00;75070.44;5052435;28;20424;-89
2022/11/22 09:12:54;;;;;;;9.02;2.33;;;;;;;-148.88;100.00;75070.44;5055257;28;20041;-86
2022/11/22 09:15:20;;;;;;;6.38;2.30;;;;;;;-148.88;100.00;75058.25;5056493;28;20025;-85
2022/11/22 09:17:47;;;;;;;8.13;2.40;;;;;;;-148.88;100.00;75052.16;5047500;28;20029;-86
2022/11/22 09:20:14;;;;;;;7.65;2.17;;;;;;;-148.88;100.00;75052.16;5035307;28;20021;-85
2022/11/22 09:22:40;;;;;;;8.18;1.88;;;;;;;-148.88;100.00;75054.19;5193262;22;20050;-77
2022/11/22 09:25:06;;;;;;;7.32;2.42;;;;;;;-148.88;100.00;75062.31;5015298;28;20396;-77
2022/11/22 09:27:32;;;;;;;10.40;2.47;;;;;;;-148.88;100.00;75037.94;5015412;28;20400;-77
2022/11/22 09:29:57;;;;;;;9.07;2.47;;;;;;;-148.88;100.00;75021.69;5015293;28;20504;-76
2022/11/22 09:32:23;;;;;;;11.00;1.92;;;;;;;-148.88;100.00;75017.63;5016654;28;20026;-77
2022/11/22 09:34:50;;;;;;;7.25;1.83;;;;;;;-148.88;100.00;74997.31;5017689;28;20393;-76
2022/11/22 09:37:18;;;;;;;5.28;1.65;;;;;;;-148.88;100.00;74985.13;5015375;28;20061;-77
2022/11/22 09:39:45;;;;;;;3.30;1.58;;;;;;;-148.88;98.76;74985.13;5014803;28;20034;-76
2022/11/22 09:42:25;;;;;;;10.25;1.80;;;;;;;-148.88;97.95;74981.06;5015069;28;20477;-77
2022/11/22 09:45:03;;;;;;;8.52;2.00;;;;;;;-148.88;98.75;74970.91;5015044;28;20033;-77
2022/11/22 09:47:46;;;;;;;8.68;1.40;;;;;;;-148.88;98.16;74960.75;5016825;28;20022;-76
2022/11/22 09:50:43;;;;;;;6.35;1.88;;;;;;;-148.88;95.79;74954.66;5016733;28;20029;-77
2022/11/22 09:53:15;;;;;;;9.90;1.67;;;;;;;-148.88;95.17;74950.59;5016503;28;20026;-77
2022/11/22 09:55:51;;;;;;;8.13;1.80;;;;;;;-148.88;95.93;74936.41;5016508;28;20084;-77
2022/11/22 09:58:24;;;;;;;8.23;1.52;;;;;;;-148.88;93.97;74938.44;5016131;28;20050;-77
2022/11/22 10:00:53;;;;;;;11.05;1.70;;;;;;;-148.88;93.49;74930.31;5014860;28;20040;-77
2022/11/22 10:03:26;;;;;;;7.18;1.90;;;;;;;-148.88;94.38;74914.06;5014528;28;20029;-77
2022/11/22 10:05:55;;;;;;;8.15;2.08;;;;;;;-148.88;93.77;74891.72;5014758;28;20022;-77
2022/11/22 10:08:35;;;;;;;8.88;1.50;;;;;;;-148.88;90.08;74895.78;5016242;28;20030;-76
2022/11/22 10:11:04;;;;;;;6.18;1.65;;;;;;;-148.88;90.61;74881.56;5017239;28;20030;-78
2022/11/22 10:13:46;;;;;;;6.25;1.50;;;;;;;-148.88;88.28;74883.59;5017292;28;20036;-76
2022/11/22 10:16:18;;;;;;;6.03;1.52;;;;;;;-148.88;89.73;74871.41;5016642;28;20018;-77
2022/11/22 10:18:53;;;;;;;10.90;1.88;;;;;;;-148.88;88.26;74879.53;5017365;28;20108;-76
2022/11/22 10:21:18;;;;;;;10.95;3.65;;;;;;;-148.88;87.88;74887.66;5015155;28;20417;-77
2022/11/22 10:23:46;;;;;;;12.32;2.63;;;;;;;-148.88;88.46;74879.53;5015060;28;20535;-76
2022/11/22 10:26:28;;;;;;;7.15;1.90;;;;;;;-148.88;86.15;74885.63;5016400;28;20030;-78
2022/11/22 10:29:20;;;;;;;5.07;1.70;;;;;;;-148.88;87.89;74865.31;5015645;28;20030;-77
2022/11/22 10:32:26;;;;;;;10.18;2.22;;;;;;;-148.88;86.80;74834.84;5015594;28;20034;-77
2022/11/22 10:35:16;;;;;;;4.40;1.40;;;;;;;-148.88;85.91;74812.53;5016282;28;20025;-77
2022/11/22 10:38:19;;;;;;;9.18;1.85;;;;;;;-148.88;85.29;74806.44;5015640;28;20026;-77
2022/11/22 10:41:09;;;;;;;8.38;1.55;;;;;;;-148.88;83.84;74778.00;5016763;28;20445;-78
2022/11/22 10:44:06;;;;;;;5.38;1.92;;;;;;;-148.88;82.64;74753.63;5016588;28;20026;-79
2022/11/22 10:46:47;;;;;;;7.85;1.65;;;;;;;-148.88;80.71;74753.63;4981748;28;20046;-75
2022/11/22 10:49:36;;;;;;;5.80;1.50;;;;;;;-148.88;80.39;74745.50;5017914;28;20026;-77
2022/11/22 10:52:37;;;;;;;7.70;1.55;;;;;;;-148.88;79.01;74737.38;5017134;28;20034;-77
2022/11/22 10:55:17;;;;;;;11.88;1.55;;;;;;;-148.88;78.47;74739.41;5010174;28;20049;-77
2022/11/22 10:58:04;;;;;;;8.85;2.25;;;;;;;-148.88;77.11;74725.19;5016133;28;20014;-76
2022/11/22 11:00:33;;;;;;;5.25;1.70;;;;;;;-148.88;78.52;74700.84;5016581;28;20021;-77
2022/11/22 11:03:31;;;;;;;9.95;1.65;;;;;;;-148.88;76.66;74715.03;5016770;28;20571;-77
2022/11/22 11:06:22;;;;;;;7.80;1.45;;;;;;;-148.88;75.60;74696.78;5015138;28;20049;-77
2022/11/22 11:08:59;;;;;;;6.18;1.48;;;;;;;-148.88;76.28;74690.69;5014782;28;20050;-77
2022/11/22 11:11:27;;;;;;;7.35;1.60;;;;;;;-148.88;77.18;74670.38;5015943;28;20049;-77
2022/11/22 11:13:56;;;;;;;6.82;1.70;;;;;;;-148.88;75.55;74682.56;5016141;28;20378;-77
2022/11/22 11:16:25;;;;;;;5.95;1.55;;;;;;;-148.88;76.70;74674.44;5016267;28;20133;-77
2022/11/22 11:19:03;;;;;;;8.77;1.92;;;;;;;-148.88;75.56;74646.00;5016177;28;20491;-78
2022/11/22 11:21:28;;;;;;;6.18;1.38;;;;;;;-148.88;73.78;74627.72;5015587;28;20116;-76